createdAt,value
2023-04-29T00:00:38.729Z,13.43
2023-04-29T00:01:39.427Z,13.43
2023-04-29T00:02:40.235Z,13.43
2023-04-29T00:03:41.204Z,13.39
2023-04-29T00:04:42.285Z,13.38
2023-04-29T00:05:42.652Z,13.44
2023-04-29T00:06:43.367Z,13.39
2023-04-29T00:07:44.087Z,13.38
2023-04-29T00:08:45.703Z,13.35
2023-04-29T00:09:46.707Z,13.35
2023-04-29T00:10:46.843Z,13.32
2023-04-29T00:11:47.547Z,13.32
2023-04-29T00:12:48.244Z,13.29
2023-04-29T00:13:49.727Z,13.29
2023-04-29T00:14:49.828Z,13.28
2023-04-29T00:15:50.530Z,13.27
2023-04-29T00:16:51.293Z,13.24
2023-04-29T00:17:52.108Z,13.24
2023-04-29T00:18:52.836Z,13.25
2023-04-29T00:19:53.790Z,13.21
2023-04-29T00:20:54.233Z,13.24
2023-04-29T00:21:54.925Z,13.22
2023-04-29T00:22:55.639Z,13.21
2023-04-29T00:25:34.066Z,13.24
2023-04-29T00:26:35.946Z,13.22
2023-04-29T00:27:36.689Z,13.22
2023-04-29T00:28:40.749Z,13.16
2023-04-29T00:29:38.012Z,13.19
2023-04-29T00:30:38.914Z,13.19
2023-04-29T00:31:39.665Z,13.21
2023-04-29T00:32:40.439Z,13.21
2023-04-29T00:33:41.153Z,13.22
2023-04-29T00:34:41.870Z,13.21
2023-04-29T00:35:42.583Z,13.17
2023-04-29T00:36:43.293Z,13.17
2023-04-29T00:37:44.018Z,13.17
2023-04-29T00:38:44.724Z,13.17
2023-04-29T00:39:45.424Z,13.14
2023-04-29T00:40:46.121Z,13.17
2023-04-29T00:41:46.826Z,13.16
2023-04-29T00:42:47.558Z,13.16
2023-04-29T00:43:48.305Z,13.16
2023-04-29T00:44:49.032Z,13.16
2023-04-29T00:45:49.720Z,13.16
2023-04-29T00:46:50.413Z,13.12
2023-04-29T00:47:51.165Z,13.10
2023-04-29T00:48:51.870Z,13.13
2023-04-29T00:49:52.830Z,13.10
2023-04-29T00:50:53.155Z,13.12
2023-04-29T00:51:53.847Z,13.09
2023-04-29T00:52:54.545Z,13.09
2023-04-29T00:53:55.265Z,13.09
2023-04-29T00:54:56.224Z,13.06
2023-04-29T00:55:56.972Z,13.09
2023-04-29T00:56:57.710Z,13.10
2023-04-29T00:57:58.435Z,13.07
2023-04-29T00:58:59.141Z,13.09
2023-04-29T00:59:59.851Z,13.06
2023-04-29T01:01:00.577Z,13.06
2023-04-29T01:02:01.367Z,13.04
2023-04-29T01:03:02.164Z,13.04
2023-04-29T01:04:03.051Z,13.04
2023-04-29T01:05:03.852Z,13.03
2023-04-29T01:06:04.581Z,13.04
2023-04-29T01:07:05.261Z,13.03
2023-04-29T01:08:05.978Z,13.03
2023-04-29T01:09:06.692Z,13.01
2023-04-29T01:10:07.402Z,12.99
2023-04-29T01:11:08.104Z,12.96
2023-04-29T01:12:08.818Z,12.94
2023-04-29T01:13:09.524Z,12.92
2023-04-29T01:14:10.234Z,12.92
2023-04-29T01:15:10.970Z,12.88
2023-04-29T01:16:11.823Z,12.91
2023-04-29T01:17:12.593Z,12.89
2023-04-29T01:18:13.361Z,12.89
2023-04-29T01:19:14.076Z,12.87
2023-04-29T01:20:14.785Z,12.87
2023-04-29T01:21:15.485Z,12.89
2023-04-29T01:22:16.178Z,12.84
2023-04-29T01:23:16.904Z,12.85
2023-04-29T01:24:17.624Z,12.85
2023-04-29T01:25:18.333Z,12.87
2023-04-29T01:26:19.031Z,12.87
2023-04-29T01:27:19.744Z,12.84
2023-04-29T01:28:20.513Z,12.85
2023-04-29T01:29:21.221Z,12.80
2023-04-29T01:30:21.923Z,12.81
2023-04-29T01:31:22.652Z,12.81
2023-04-29T01:32:23.368Z,12.85
2023-04-29T01:33:24.139Z,12.80
2023-04-29T01:34:24.866Z,12.81
2023-04-29T01:35:25.601Z,12.81
2023-04-29T01:36:26.310Z,12.80
2023-04-29T01:37:26.998Z,12.80
2023-04-29T01:38:27.738Z,12.81
2023-04-29T01:39:28.425Z,12.77
2023-04-29T01:40:29.128Z,12.79
2023-04-29T01:41:29.851Z,12.77
2023-04-29T01:42:30.562Z,12.80
2023-04-29T01:43:31.276Z,12.76
2023-04-29T01:44:31.997Z,12.77
2023-04-29T01:45:32.730Z,12.77
2023-04-29T01:46:33.472Z,12.76
2023-04-29T01:47:34.262Z,12.79
2023-04-29T01:48:34.964Z,12.77
2023-04-29T01:49:35.684Z,12.76
2023-04-29T01:50:36.391Z,12.74
2023-04-29T01:51:37.097Z,12.76
2023-04-29T01:52:37.873Z,12.73
2023-04-29T01:53:38.641Z,12.73
2023-04-29T01:54:39.346Z,12.74
2023-04-29T01:55:40.052Z,12.70
2023-04-29T01:56:40.773Z,12.69
2023-04-29T01:57:41.470Z,12.71
2023-04-29T01:58:42.178Z,12.67
2023-04-29T01:59:42.879Z,12.70
2023-04-29T02:00:43.676Z,12.67
2023-04-29T02:01:44.376Z,12.69
2023-04-29T02:02:45.179Z,12.66
2023-04-29T02:03:46.094Z,12.67
2023-04-29T02:04:46.466Z,12.66
2023-04-29T02:05:47.221Z,12.67
2023-04-29T02:06:47.921Z,12.66
2023-04-29T02:07:48.631Z,12.67
2023-04-29T02:08:49.348Z,12.69
2023-04-29T02:09:50.145Z,12.63
2023-04-29T02:10:50.899Z,12.63
2023-04-29T02:11:51.609Z,12.63
2023-04-29T02:12:52.315Z,12.62
2023-04-29T02:13:53.011Z,12.63
2023-04-29T02:14:53.731Z,12.61
2023-04-29T02:15:54.441Z,12.58
2023-04-29T02:16:54.922Z,12.61
2023-04-29T02:17:55.755Z,12.63
2023-04-29T02:18:56.465Z,12.59
2023-04-29T02:19:57.169Z,12.58
2023-04-29T02:20:57.907Z,12.61
2023-04-29T02:21:58.634Z,12.59
2023-04-29T02:22:59.332Z,12.56
2023-04-29T02:24:00.143Z,12.56
2023-04-29T02:25:00.866Z,12.59
2023-04-29T02:26:01.603Z,12.56
2023-04-29T02:27:02.317Z,12.54
2023-04-29T02:28:03.032Z,12.54
2023-04-29T02:29:03.754Z,12.55
2023-04-29T02:30:04.441Z,12.55
2023-04-29T02:31:05.186Z,12.52
2023-04-29T02:32:05.945Z,12.55
2023-04-29T02:33:08.404Z,12.54
2023-04-29T02:34:07.716Z,12.54
2023-04-29T02:35:08.438Z,12.52
2023-04-29T02:36:09.138Z,12.51
2023-04-29T02:37:09.848Z,12.54
2023-04-29T02:38:10.585Z,12.52
2023-04-29T02:39:11.292Z,12.51
2023-04-29T02:40:12.004Z,12.49
2023-04-29T02:41:12.713Z,12.48
2023-04-29T02:42:14.264Z,12.49
2023-04-29T02:43:14.396Z,12.46
2023-04-29T02:44:15.092Z,12.51
2023-04-29T02:45:15.859Z,12.49
2023-04-29T02:47:17.281Z,12.46
2023-04-29T02:48:18.027Z,12.48
2023-04-29T02:49:18.729Z,12.44
2023-04-29T02:50:19.453Z,12.43
2023-04-29T02:51:20.172Z,12.41
2023-04-29T02:52:20.872Z,12.43
2023-04-29T02:53:21.559Z,12.43
2023-04-29T02:54:22.285Z,12.40
2023-04-29T02:55:23.012Z,12.38
2023-04-29T02:56:23.764Z,12.33
2023-04-29T02:57:24.475Z,12.34
2023-04-29T02:58:25.173Z,12.34
2023-04-29T02:59:25.902Z,12.33
2023-04-29T03:00:26.611Z,12.33
2023-04-29T03:01:27.398Z,12.31
2023-04-29T03:02:28.233Z,12.30
2023-04-29T03:03:29.139Z,12.29
2023-04-29T03:04:29.980Z,12.31
2023-04-29T03:05:30.786Z,12.30
2023-04-29T03:06:31.508Z,12.30
2023-04-29T03:07:32.222Z,12.29
2023-04-29T03:08:32.927Z,12.31
2023-04-29T03:09:33.639Z,12.31
2023-04-29T03:10:34.333Z,12.33
2023-04-29T03:11:35.056Z,12.30
2023-04-29T03:12:35.788Z,12.31
2023-04-29T03:13:36.474Z,12.31
2023-04-29T03:14:37.164Z,12.26
2023-04-29T03:15:37.878Z,12.29
2023-04-29T03:16:38.654Z,12.29
2023-04-29T03:17:39.456Z,12.29
2023-04-29T03:18:40.230Z,12.30
2023-04-29T03:19:40.950Z,12.29
2023-04-29T03:20:41.624Z,12.30
2023-04-29T03:21:42.324Z,12.31
2023-04-29T03:22:43.050Z,12.26
2023-04-29T03:23:43.756Z,12.29
2023-04-29T03:24:44.465Z,12.29
2023-04-29T03:25:45.189Z,12.26
2023-04-29T03:26:45.858Z,12.23
2023-04-29T03:27:46.584Z,12.25
2023-04-29T03:28:47.284Z,12.25
2023-04-29T03:29:48.030Z,12.25
2023-04-29T03:30:48.708Z,12.23
2023-04-29T03:31:49.451Z,12.23
2023-04-29T03:32:50.224Z,12.23
2023-04-29T03:33:50.944Z,12.25
2023-04-29T03:34:51.654Z,12.25
2023-04-29T03:35:52.352Z,12.21
2023-04-29T03:36:53.045Z,12.22
2023-04-29T03:37:53.775Z,12.23
2023-04-29T03:38:54.481Z,12.22
2023-04-29T03:39:55.331Z,12.21
2023-04-29T03:40:56.107Z,12.21
2023-04-29T03:41:56.802Z,12.22
2023-04-29T03:42:57.513Z,12.23
2023-04-29T03:43:58.230Z,12.19
2023-04-29T03:44:58.932Z,12.21
2023-04-29T03:45:59.692Z,12.21
2023-04-29T03:47:00.395Z,12.18
2023-04-29T03:48:01.173Z,12.21
2023-04-29T03:49:01.904Z,12.21
2023-04-29T03:50:02.623Z,12.19
2023-04-29T03:51:03.334Z,12.19
2023-04-29T03:52:04.022Z,12.19
2023-04-29T03:53:04.736Z,12.18
2023-04-29T03:54:05.445Z,12.19
2023-04-29T03:55:06.138Z,12.18
2023-04-29T03:56:06.885Z,12.19
2023-04-29T03:57:07.626Z,12.19
2023-04-29T03:58:08.333Z,12.19
2023-04-29T03:59:09.056Z,12.18
2023-04-29T04:00:09.794Z,12.16
2023-04-29T04:01:10.501Z,12.18
2023-04-29T04:02:11.277Z,12.19
2023-04-29T04:03:12.098Z,12.16
2023-04-29T04:04:13.061Z,12.16
2023-04-29T04:05:14.092Z,12.16
2023-04-29T04:06:14.880Z,12.16
2023-04-29T04:07:15.629Z,12.15
2023-04-29T04:08:16.306Z,12.11
2023-04-29T04:09:17.012Z,12.11
2023-04-29T04:10:17.728Z,12.07
2023-04-29T04:11:18.444Z,12.05
2023-04-29T04:12:19.186Z,12.04
2023-04-29T04:13:19.920Z,12.05
2023-04-29T04:14:20.656Z,12.01
2023-04-29T04:15:21.355Z,12.01
2023-04-29T04:16:22.134Z,12.04
2023-04-29T04:17:22.941Z,12.01
2023-04-29T04:18:23.628Z,12.00
2023-04-29T04:19:24.333Z,11.98
2023-04-29T04:20:25.045Z,11.97
2023-04-29T04:21:25.756Z,11.96
2023-04-29T04:22:26.449Z,11.97
2023-04-29T04:23:27.154Z,11.94
2023-04-29T04:24:27.863Z,11.93
2023-04-29T04:25:28.557Z,11.90
2023-04-29T04:26:29.256Z,11.93
2023-04-29T04:27:29.980Z,11.90
2023-04-29T04:28:30.712Z,11.85
2023-04-29T04:29:31.436Z,11.88
2023-04-29T04:30:32.141Z,11.84
2023-04-29T04:31:32.897Z,11.84
2023-04-29T04:32:33.696Z,11.84
2023-04-29T04:33:34.387Z,11.84
2023-04-29T04:34:35.119Z,11.82
2023-04-29T04:35:35.826Z,11.79
2023-04-29T04:36:36.567Z,11.78
2023-04-29T04:37:37.297Z,11.78
2023-04-29T04:38:37.998Z,11.77
2023-04-29T04:39:38.717Z,11.70
2023-04-29T04:40:39.418Z,11.70
2023-04-29T04:41:40.130Z,11.66
2023-04-29T04:42:40.835Z,11.64
2023-04-29T04:43:41.572Z,11.63
2023-04-29T04:44:42.280Z,11.60
2023-04-29T04:45:43.040Z,11.62
2023-04-29T04:46:43.743Z,11.60
2023-04-29T04:47:44.512Z,11.57
2023-04-29T04:48:45.235Z,11.60
2023-04-29T04:49:45.948Z,11.57
2023-04-29T04:50:46.682Z,11.54
2023-04-29T04:51:47.383Z,11.56
2023-04-29T04:52:48.129Z,11.54
2023-04-29T04:53:48.829Z,11.49
2023-04-29T04:54:49.550Z,11.51
2023-04-29T04:55:50.280Z,11.49
2023-04-29T04:56:50.983Z,11.49
2023-04-29T04:57:51.732Z,11.46
2023-04-29T04:58:52.468Z,11.46
2023-04-29T04:59:53.411Z,11.45
2023-04-29T05:00:53.791Z,11.42
2023-04-29T05:01:54.603Z,11.41
2023-04-29T05:02:55.544Z,11.41
2023-04-29T05:03:56.531Z,11.39
2023-04-29T05:04:57.270Z,11.35
2023-04-29T05:05:58.060Z,11.35
2023-04-29T05:06:58.896Z,11.35
2023-04-29T05:07:59.667Z,11.35
2023-04-29T05:09:00.377Z,11.35
2023-04-29T05:10:01.115Z,11.36
2023-04-29T05:11:01.849Z,11.35
2023-04-29T05:12:02.536Z,11.33
2023-04-29T05:13:03.377Z,11.35
2023-04-29T05:14:04.115Z,11.35
2023-04-29T05:15:04.831Z,11.35
2023-04-29T05:16:06.647Z,11.36
2023-04-29T05:17:06.398Z,11.33
2023-04-29T05:18:07.200Z,11.31
2023-04-29T05:19:07.905Z,11.31
2023-04-29T05:20:08.638Z,11.28
2023-04-29T05:21:09.322Z,11.30
2023-04-29T05:22:10.195Z,11.28
2023-04-29T05:23:10.921Z,11.27
2023-04-29T05:24:11.635Z,11.27
2023-04-29T05:25:12.331Z,11.26
2023-04-29T05:26:13.018Z,11.28
2023-04-29T05:27:13.693Z,11.28
2023-04-29T05:28:14.437Z,11.27
2023-04-29T05:29:15.137Z,11.28
2023-04-29T05:30:15.840Z,11.28
2023-04-29T05:31:16.601Z,11.28
2023-04-29T05:32:17.332Z,11.28
2023-04-29T05:33:18.055Z,11.27
2023-04-29T05:34:18.759Z,11.28
2023-04-29T05:35:19.492Z,11.28
2023-04-29T05:36:20.186Z,11.27
2023-04-29T05:37:20.925Z,11.27
2023-04-29T05:38:21.652Z,11.28
2023-04-29T05:39:22.363Z,11.28
2023-04-29T05:40:23.460Z,11.28
2023-04-29T05:41:23.604Z,11.23
2023-04-29T05:42:24.345Z,11.24
2023-04-29T05:43:25.096Z,11.24
2023-04-29T05:44:25.766Z,11.23
2023-04-29T05:45:26.505Z,11.21
2023-04-29T05:46:28.602Z,11.21
2023-04-29T05:47:28.199Z,11.19
2023-04-29T05:48:28.940Z,11.19
2023-04-29T05:49:29.674Z,11.21
2023-04-29T05:50:30.391Z,11.20
2023-04-29T05:51:31.149Z,11.21
2023-04-29T05:52:31.869Z,11.21
2023-04-29T05:53:32.598Z,11.19
2023-04-29T05:54:33.314Z,11.20
2023-04-29T05:55:34.029Z,11.20
2023-04-29T05:56:34.724Z,11.17
2023-04-29T05:57:35.445Z,11.17
2023-04-29T05:58:36.157Z,11.20
2023-04-29T05:59:36.854Z,11.17
2023-04-29T06:00:37.559Z,11.13
2023-04-29T06:01:38.278Z,11.16
2023-04-29T06:02:47.222Z,11.13
2023-04-29T06:03:40.167Z,11.13
2023-04-29T06:04:41.547Z,11.13
2023-04-29T06:05:42.668Z,11.13
2023-04-29T06:06:42.969Z,11.12
2023-04-29T06:07:43.719Z,11.12
2023-04-29T06:08:44.435Z,11.12
2023-04-29T06:09:45.139Z,11.12
2023-04-29T06:10:45.867Z,11.12
2023-04-29T06:11:46.585Z,11.13
2023-04-29T06:12:47.294Z,11.11
2023-04-29T06:13:48.028Z,11.13
2023-04-29T06:14:48.708Z,11.12
2023-04-29T06:15:49.426Z,11.12
2023-04-29T06:16:50.147Z,11.12
2023-04-29T06:17:50.924Z,11.13
2023-04-29T06:18:51.625Z,11.11
2023-04-29T06:19:52.553Z,11.09
2023-04-29T06:20:52.837Z,11.12
2023-04-29T06:21:53.547Z,11.12
2023-04-29T06:22:54.262Z,11.11
2023-04-29T06:23:54.959Z,11.11
2023-04-29T06:25:04.763Z,11.09
2023-04-29T06:25:56.221Z,11.11
2023-04-29T06:26:56.976Z,11.11
2023-04-29T06:27:57.733Z,11.11
2023-04-29T06:28:58.589Z,11.09
2023-04-29T06:29:59.328Z,11.11
2023-04-29T06:31:00.065Z,11.08
2023-04-29T06:32:00.904Z,11.08
2023-04-29T06:33:01.710Z,11.12
2023-04-29T06:34:02.574Z,11.09
2023-04-29T06:35:03.303Z,11.11
2023-04-29T06:36:04.031Z,11.11
2023-04-29T06:37:04.775Z,11.13
2023-04-29T06:38:05.512Z,11.16
2023-04-29T06:39:06.240Z,11.11
2023-04-29T06:40:07.120Z,11.13
2023-04-29T06:41:07.929Z,11.16
2023-04-29T06:42:08.848Z,11.16
2023-04-29T06:43:09.648Z,11.12
2023-04-29T06:44:10.485Z,11.16
2023-04-29T06:45:11.198Z,11.16
2023-04-29T06:46:11.930Z,11.13
2023-04-29T06:47:12.734Z,11.13
2023-04-29T06:48:13.567Z,11.17
2023-04-29T06:49:14.325Z,11.20
2023-04-29T06:50:15.133Z,11.20
2023-04-29T06:51:15.997Z,11.19
2023-04-29T06:52:16.764Z,11.23
2023-04-29T06:53:17.545Z,11.23
2023-04-29T06:54:18.504Z,11.23
2023-04-29T06:55:19.313Z,11.23
2023-04-29T06:56:20.182Z,11.20
2023-04-29T06:57:20.923Z,11.21
2023-04-29T06:58:21.675Z,11.24
2023-04-29T06:59:22.396Z,11.23
2023-04-29T07:00:23.143Z,11.23
2023-04-29T07:01:23.894Z,11.24
2023-04-29T07:02:24.707Z,11.24
2023-04-29T07:03:25.594Z,11.24
2023-04-29T07:04:26.418Z,11.28
2023-04-29T07:05:27.177Z,11.27
2023-04-29T07:06:27.975Z,11.28
2023-04-29T07:07:28.719Z,11.30
2023-04-29T07:08:29.490Z,11.33
2023-04-29T07:09:30.244Z,11.31
2023-04-29T07:10:31.023Z,11.31
2023-04-29T07:11:31.871Z,11.33
2023-04-29T07:12:32.631Z,11.36
2023-04-29T07:13:33.428Z,11.31
2023-04-29T07:14:34.187Z,11.35
2023-04-29T07:15:34.896Z,11.36
2023-04-29T07:16:35.769Z,11.38
2023-04-29T07:17:36.595Z,11.30
2023-04-29T07:18:37.400Z,11.35
2023-04-29T07:19:38.124Z,11.35
2023-04-29T07:20:38.874Z,11.35
2023-04-29T07:21:39.641Z,11.36
2023-04-29T07:22:40.378Z,11.33
2023-04-29T07:23:41.232Z,11.30
2023-04-29T07:24:41.933Z,11.31
2023-04-29T07:25:42.775Z,11.31
2023-04-29T07:26:43.512Z,11.28
2023-04-29T07:27:44.240Z,11.30
2023-04-29T07:28:45.021Z,11.30
2023-04-29T07:29:45.794Z,11.30
2023-04-29T07:30:46.591Z,11.30
2023-04-29T07:31:47.323Z,11.30
2023-04-29T07:32:48.172Z,11.27
2023-04-29T07:33:48.963Z,11.30
2023-04-29T07:34:49.698Z,11.28
2023-04-29T07:35:50.406Z,11.35
2023-04-29T07:36:51.280Z,11.30
2023-04-29T07:37:52.020Z,11.31
2023-04-29T07:38:52.737Z,11.30
2023-04-29T07:39:53.449Z,11.30
2023-04-29T07:40:54.180Z,11.33
2023-04-29T07:41:54.932Z,11.33
2023-04-29T07:42:55.711Z,11.33
2023-04-29T07:43:56.502Z,11.33
2023-04-29T07:44:57.292Z,11.35
2023-04-29T07:45:58.033Z,11.33
2023-04-29T07:46:58.766Z,11.33
2023-04-29T07:47:59.582Z,11.36
2023-04-29T07:49:00.289Z,11.33
2023-04-29T07:50:01.021Z,11.36
2023-04-29T07:51:01.804Z,11.35
2023-04-29T07:52:02.535Z,11.36
2023-04-29T07:53:03.316Z,11.36
2023-04-29T07:54:04.065Z,11.35
2023-04-29T07:55:04.799Z,11.35
2023-04-29T07:56:05.644Z,11.38
2023-04-29T07:57:06.374Z,11.36
2023-04-29T07:58:07.091Z,11.38
2023-04-29T07:59:07.900Z,11.41
2023-04-29T08:00:08.625Z,11.36
2023-04-29T08:01:09.364Z,11.41
2023-04-29T08:02:10.111Z,11.38
2023-04-29T08:03:10.949Z,11.39
2023-04-29T08:04:11.902Z,11.38
2023-04-29T08:05:13.033Z,11.39
2023-04-29T08:06:13.485Z,11.41
2023-04-29T08:07:14.210Z,11.41
2023-04-29T08:08:14.907Z,11.38
2023-04-29T08:09:15.612Z,11.38
2023-04-29T08:10:16.355Z,11.36
2023-04-29T08:11:17.092Z,11.39
2023-04-29T08:12:17.800Z,11.38
2023-04-29T08:13:18.491Z,11.39
2023-04-29T08:14:19.308Z,11.38
2023-04-29T08:15:19.999Z,11.38
2023-04-29T08:16:20.780Z,11.38
2023-04-29T08:17:21.444Z,11.38
2023-04-29T08:18:22.157Z,11.38
2023-04-29T08:19:22.886Z,11.39
2023-04-29T08:20:23.592Z,11.39
2023-04-29T08:21:24.447Z,11.41
2023-04-29T08:22:25.203Z,11.39
2023-04-29T08:23:25.936Z,11.38
2023-04-29T08:24:26.631Z,11.44
2023-04-29T08:25:27.375Z,11.41
2023-04-29T08:26:28.171Z,11.46
2023-04-29T08:27:28.872Z,11.46
2023-04-29T08:28:29.616Z,11.46
2023-04-29T08:29:30.435Z,11.48
2023-04-29T08:30:31.176Z,11.54
2023-04-29T08:31:31.990Z,11.53
2023-04-29T08:32:32.784Z,11.53
2023-04-29T08:33:33.487Z,11.56
2023-04-29T08:34:34.208Z,11.60
2023-04-29T08:35:34.952Z,11.60
2023-04-29T08:36:35.684Z,11.60
2023-04-29T08:37:36.411Z,11.60
2023-04-29T08:38:37.133Z,11.60
2023-04-29T08:39:37.878Z,11.63
2023-04-29T08:40:38.822Z,11.62
2023-04-29T08:41:39.505Z,11.63
2023-04-29T08:42:40.195Z,11.64
2023-04-29T08:43:41.178Z,11.66
2023-04-29T08:44:41.904Z,11.69
2023-04-29T08:45:42.617Z,11.69
2023-04-29T08:46:43.345Z,11.66
2023-04-29T08:47:44.313Z,11.67
2023-04-29T08:48:45.609Z,11.70
2023-04-29T08:49:46.886Z,11.69
2023-04-29T08:50:47.010Z,11.69
2023-04-29T08:51:48.046Z,11.67
2023-04-29T08:52:50.886Z,11.67
2023-04-29T08:53:49.308Z,11.70
2023-04-29T08:54:50.130Z,11.70
2023-04-29T08:55:51.093Z,11.74
2023-04-29T08:56:51.852Z,11.72
2023-04-29T08:57:52.645Z,11.72
2023-04-29T08:58:53.372Z,11.69
2023-04-29T08:59:55.048Z,11.72
2023-04-29T09:00:54.734Z,11.69
2023-04-29T09:01:55.504Z,11.70
2023-04-29T09:02:56.344Z,11.67
2023-04-29T09:03:57.345Z,11.69
2023-04-29T09:04:57.654Z,11.66
2023-04-29T09:05:58.387Z,11.67
2023-04-29T09:06:59.175Z,11.69
2023-04-29T09:07:59.947Z,11.69
2023-04-29T09:09:00.663Z,11.69
2023-04-29T09:10:01.492Z,11.69
2023-04-29T09:11:02.268Z,11.69
2023-04-29T09:12:02.991Z,11.66
2023-04-29T09:13:03.741Z,11.66
2023-04-29T09:14:04.497Z,11.66
2023-04-29T09:15:05.290Z,11.64
2023-04-29T09:16:06.123Z,11.63
2023-04-29T09:17:06.904Z,11.63
2023-04-29T09:18:07.869Z,11.64
2023-04-29T09:19:08.167Z,11.60
2023-04-29T09:20:08.919Z,11.59
2023-04-29T09:21:09.689Z,11.62
2023-04-29T09:22:10.441Z,11.60
2023-04-29T09:23:11.182Z,11.59
2023-04-29T09:24:11.926Z,11.60
2023-04-29T09:25:12.722Z,11.59
2023-04-29T09:26:13.504Z,11.57
2023-04-29T09:27:14.261Z,11.54
2023-04-29T09:28:14.996Z,11.56
2023-04-29T09:29:15.772Z,11.56
2023-04-29T09:30:16.549Z,11.56
2023-04-29T09:31:17.388Z,11.57
2023-04-29T09:32:18.095Z,11.59
2023-04-29T09:33:18.825Z,11.57
2023-04-29T09:34:19.634Z,11.56
2023-04-29T09:35:20.373Z,11.60
2023-04-29T09:36:21.170Z,11.59
2023-04-29T09:37:21.917Z,11.60
2023-04-29T09:38:22.904Z,11.60
2023-04-29T09:39:24.112Z,11.62
2023-04-29T09:40:24.254Z,11.63
2023-04-29T09:41:25.053Z,11.59
2023-04-29T09:42:25.778Z,11.60
2023-04-29T09:43:26.537Z,11.63
2023-04-29T09:44:27.403Z,11.62
2023-04-29T09:45:28.136Z,11.63
2023-04-29T09:46:28.929Z,11.66
2023-04-29T09:47:29.673Z,11.64
2023-04-29T09:48:30.407Z,11.67
2023-04-29T09:49:31.120Z,11.66
2023-04-29T09:50:31.852Z,11.70
2023-04-29T09:51:32.627Z,11.72
2023-04-29T09:52:33.361Z,11.75
2023-04-29T09:53:34.089Z,11.81
2023-04-29T09:54:34.826Z,11.78
2023-04-29T09:55:35.543Z,11.81
2023-04-29T09:56:36.304Z,11.82
2023-04-29T09:57:37.037Z,11.84
2023-04-29T09:58:38.214Z,11.88
2023-04-29T09:59:38.496Z,11.85
2023-04-29T10:00:39.217Z,11.90
2023-04-29T10:01:40.092Z,11.93
2023-04-29T10:02:40.946Z,11.97
2023-04-29T10:03:41.896Z,11.96
2023-04-29T10:04:42.737Z,12.00
2023-04-29T10:05:43.483Z,12.00
2023-04-29T10:06:44.259Z,12.01
2023-04-29T10:07:44.997Z,12.05
2023-04-29T10:08:45.772Z,12.05
2023-04-29T10:09:46.496Z,12.08
2023-04-29T10:10:47.287Z,12.11
2023-04-29T10:11:48.060Z,12.12
2023-04-29T10:12:48.835Z,12.15
2023-04-29T10:13:49.656Z,12.16
2023-04-29T10:14:50.635Z,12.18
2023-04-29T10:15:50.974Z,12.18
2023-04-29T10:16:51.770Z,12.18
2023-04-29T10:17:52.496Z,12.16
2023-04-29T10:18:53.297Z,12.19
2023-04-29T10:19:54.030Z,12.21
2023-04-29T10:20:54.770Z,12.15
2023-04-29T10:21:55.692Z,12.18
2023-04-29T10:22:56.724Z,12.15
2023-04-29T10:23:57.054Z,12.15
2023-04-29T10:24:57.787Z,12.12
2023-04-29T10:25:58.522Z,12.12
2023-04-29T10:26:59.272Z,12.13
2023-04-29T10:27:59.957Z,12.12
2023-04-29T10:29:00.793Z,12.15
2023-04-29T10:30:01.577Z,12.13
2023-04-29T10:31:02.347Z,12.12
2023-04-29T10:32:03.110Z,12.08
2023-04-29T10:33:04.032Z,12.11
2023-04-29T10:34:04.777Z,12.08
2023-04-29T10:35:05.510Z,12.08
2023-04-29T10:36:06.328Z,12.08
2023-04-29T10:37:07.147Z,12.11
2023-04-29T10:38:07.888Z,12.08
2023-04-29T10:39:08.680Z,12.11
2023-04-29T10:40:09.435Z,12.08
2023-04-29T10:41:10.188Z,12.07
2023-04-29T10:42:10.912Z,12.04
2023-04-29T10:43:11.670Z,12.05
2023-04-29T10:44:12.380Z,12.07
2023-04-29T10:45:13.155Z,12.07
2023-04-29T10:46:13.933Z,12.11
2023-04-29T10:47:14.690Z,12.07
2023-04-29T10:48:15.483Z,12.12
2023-04-29T10:49:16.254Z,12.11
2023-04-29T10:50:17.019Z,12.12
2023-04-29T10:51:17.723Z,12.12
2023-04-29T10:52:18.415Z,12.08
2023-04-29T10:53:19.175Z,12.11
2023-04-29T10:54:19.874Z,12.07
2023-04-29T10:55:20.633Z,12.11
2023-04-29T10:56:21.441Z,12.07
2023-04-29T10:57:22.266Z,12.08
2023-04-29T10:58:23.015Z,12.08
2023-04-29T10:59:23.830Z,12.04
2023-04-29T17:50:39.969Z,12.59
2023-04-29T17:51:42.524Z,12.62
2023-04-29T17:52:42.684Z,12.63
2023-04-29T17:53:43.417Z,12.61
2023-04-29T17:54:44.117Z,12.63
2023-04-29T17:55:44.805Z,12.59
2023-04-29T17:56:45.503Z,12.61
2023-04-29T17:57:46.196Z,12.56
2023-04-29T17:58:46.910Z,12.58
2023-04-29T17:59:47.671Z,12.54
2023-04-29T18:00:48.399Z,12.56
2023-04-29T18:01:49.122Z,12.54
2023-04-29T18:02:49.861Z,12.52
2023-04-29T18:03:50.654Z,12.55
2023-04-29T18:04:51.748Z,12.52
2023-04-29T18:05:51.857Z,12.54
2023-04-29T18:06:52.567Z,12.51
2023-04-29T18:07:53.294Z,12.51
2023-04-29T18:08:54.040Z,12.52
2023-04-29T18:09:55.028Z,12.49
2023-04-29T18:10:55.358Z,12.49
2023-04-29T18:11:56.075Z,12.51
2023-04-29T18:12:56.773Z,12.49
2023-04-29T18:13:57.473Z,12.49
2023-04-29T18:14:58.198Z,12.51
2023-04-29T18:15:58.884Z,12.52
2023-04-29T18:16:59.669Z,12.49
2023-04-29T18:18:00.403Z,12.51
2023-04-29T18:19:01.135Z,12.49
2023-04-29T18:20:01.855Z,12.46
2023-04-29T18:21:02.548Z,12.46
2023-04-29T18:22:03.246Z,12.46
2023-04-29T18:23:03.926Z,12.46
2023-04-29T18:24:04.627Z,12.49
2023-04-29T18:25:05.360Z,12.44
2023-04-29T18:26:06.052Z,12.44
2023-04-29T18:27:06.794Z,12.43
2023-04-29T18:28:23.099Z,12.43
2023-04-29T18:29:08.494Z,12.41
2023-04-29T18:30:09.203Z,12.40
2023-04-29T18:31:09.939Z,12.38
2023-04-29T18:32:10.635Z,12.37
2023-04-29T18:33:11.397Z,12.37
2023-04-29T18:34:12.142Z,12.37
2023-04-29T18:35:12.850Z,12.37
2023-04-29T18:36:13.541Z,12.37
2023-04-29T18:37:14.244Z,12.34
2023-04-29T18:38:14.965Z,12.34
2023-04-29T18:39:15.672Z,12.31
2023-04-29T18:40:16.379Z,12.33
2023-04-29T18:41:17.105Z,12.30
2023-04-29T18:42:17.784Z,12.29
2023-04-29T18:43:18.490Z,12.26
2023-04-29T18:44:19.217Z,12.25
2023-04-29T18:45:19.916Z,12.26
2023-04-29T18:46:20.658Z,12.29
2023-04-29T18:47:21.367Z,12.25
2023-04-29T18:48:22.073Z,12.22
2023-04-29T18:49:22.800Z,12.19
2023-04-29T18:50:23.526Z,12.18
2023-04-29T18:51:24.243Z,12.16
2023-04-29T18:52:24.941Z,12.16
2023-04-29T18:53:25.655Z,12.13
2023-04-29T18:54:26.388Z,12.13
2023-04-29T18:55:27.095Z,12.12
2023-04-29T18:56:27.837Z,12.07
2023-04-29T18:57:28.545Z,12.08
2023-04-29T18:58:29.266Z,12.04
2023-04-29T18:59:29.879Z,12.03
2023-04-29T19:00:30.626Z,12.03
2023-04-29T19:01:31.343Z,11.98
2023-04-29T19:02:32.099Z,11.98
2023-04-29T19:03:32.795Z,11.94
2023-04-29T19:04:33.634Z,11.94
2023-04-29T19:05:34.371Z,11.90
2023-04-29T19:06:35.099Z,11.90
2023-04-29T19:07:35.802Z,11.88
2023-04-29T19:08:36.505Z,11.84
2023-04-29T19:09:37.219Z,11.82
2023-04-29T19:10:37.918Z,11.82
2023-04-29T19:11:38.636Z,11.77
2023-04-29T19:12:39.353Z,11.77
2023-04-29T19:13:40.054Z,11.77
2023-04-29T19:14:41.163Z,11.72
2023-04-29T19:15:41.340Z,11.69
2023-04-29T19:16:42.081Z,11.67
2023-04-29T19:17:42.837Z,11.69
2023-04-29T19:18:43.538Z,11.64
2023-04-29T19:19:44.267Z,11.60
2023-04-29T19:20:44.965Z,11.62
2023-04-29T19:21:45.721Z,11.59
2023-04-29T19:22:46.397Z,11.62
2023-04-29T19:23:47.134Z,11.56
2023-04-29T19:24:47.842Z,11.57
2023-04-29T19:25:48.571Z,11.56
2023-04-29T19:26:49.284Z,11.56
2023-04-29T19:27:50.022Z,11.51
2023-04-29T19:28:50.745Z,11.51
2023-04-29T19:29:51.485Z,11.48
2023-04-29T19:30:52.262Z,11.48
2023-04-29T19:31:53.062Z,11.51
2023-04-29T19:32:53.899Z,11.46
2023-04-29T19:33:54.628Z,11.49
2023-04-29T19:34:55.389Z,11.49
2023-04-29T19:35:56.083Z,11.49
2023-04-29T19:36:56.816Z,11.48
2023-04-29T19:37:57.531Z,11.51
2023-04-29T19:38:58.284Z,11.49
2023-04-29T19:39:58.999Z,11.51
2023-04-29T19:40:59.702Z,11.51
2023-04-29T19:42:00.408Z,11.53
2023-04-29T19:43:01.128Z,11.51
2023-04-29T19:44:01.830Z,11.48
2023-04-29T19:45:02.545Z,11.49
2023-04-29T19:46:03.339Z,11.45
2023-04-29T19:47:04.207Z,11.46
2023-04-29T19:48:05.022Z,11.44
2023-04-29T19:49:05.854Z,11.46
2023-04-29T19:50:06.557Z,11.46
2023-04-29T19:51:07.283Z,11.45
2023-04-29T19:52:07.981Z,11.45
2023-04-29T19:53:08.704Z,11.44
2023-04-29T19:54:09.387Z,11.44
2023-04-29T19:55:10.087Z,11.41